Terminal Aerodrome Forecast
Issued by NWS

Home | Current Version | Previous Version | Text Only | Print | Product List | Glossary On
Versions: 1 2 3 4 5 6 7 8 9 10 11 12 13 14 15 16 17 18 19 20 21 22 23 24 25 26 27 28 29
000
FTUS43 KDLH 301300 AAA
TAFHIB
TAF AMD
KHIB 301303Z 3013/3112 00000KT 2SM BR FEW001 BKN060
      TEMPO 3013/3014 1/4SM FG BKN001
     FM301400 31004KT 4SM BR SCT050
     FM301600 31006KT P6SM SCT050
     FM301900 31011KT P6SM VCTS SCT040CB BKN070
     FM310100 31004KT P6SM SCT070=

USA.gov is the U.S. government's official web portal to all federal, state and local government web resources and services.